Time;durP1;ratioP1;P1;durP2;ratioP2;P2;SDS_P1;SDS_P2;PMS_P1;PMS_P2;Temp;Humidity;BMP_temperature;BMP_pressure;BME280_temperature;BME280_humidity;BME280_pressure;Samples;Min_cycle;Max_cycle;Signal;HPM_P1;HPM_P2
2021/05/08 00:00:01;;;;;;;3.35;2.67;;;;;;;1.35;78.61;99408.03;5088814;28;20044;-81
2021/05/08 00:02:27;;;;;;;4.22;2.97;;;;;;;1.34;78.44;99401.00;5091471;28;20410;-80
2021/05/08 00:04:54;;;;;;;3.53;3.10;;;;;;;1.38;77.21;99410.47;5090493;28;20101;-81
2021/05/08 00:07:20;;;;;;;5.32;2.90;;;;;;;1.23;77.50;99417.03;5091729;28;20290;-80
2021/05/08 00:09:46;;;;;;;3.47;3.00;;;;;;;1.34;77.62;99411.72;5090223;28;20056;-81
2021/05/08 00:12:13;;;;;;;3.03;2.72;;;;;;;1.18;78.26;99401.31;5091374;28;20048;-80
2021/05/08 00:14:39;;;;;;;2.83;2.53;;;;;;;1.03;79.50;99400.69;5090287;28;20044;-80
2021/05/08 00:17:06;;;;;;;4.15;2.92;;;;;;;1.15;78.61;99400.72;5090470;28;20055;-80
2021/05/08 00:19:33;;;;;;;4.15;3.45;;;;;;;1.24;79.33;99400.00;5091127;28;20048;-80
2021/05/08 00:21:59;;;;;;;4.50;3.30;;;;;;;1.12;79.54;99387.56;5090357;28;20047;-80
2021/05/08 00:24:26;;;;;;;10.43;3.40;;;;;;;1.13;79.60;99402.66;5090678;28;20074;-81
2021/05/08 00:26:52;;;;;;;3.13;2.83;;;;;;;1.20;80.01;99415.44;5091653;28;20093;-80
2021/05/08 00:29:19;;;;;;;3.20;2.90;;;;;;;1.16;79.24;99399.72;5091252;28;20048;-81
2021/05/08 00:31:45;;;;;;;3.67;3.10;;;;;;;1.18;79.65;99403.16;5091272;28;20056;-80
2021/05/08 00:34:12;;;;;;;3.65;3.10;;;;;;;1.22;78.85;99408.16;5079702;28;20040;-80
2021/05/08 00:36:38;;;;;;;5.63;3.17;;;;;;;1.19;79.58;99415.56;5090356;28;20051;-81
2021/05/08 00:39:06;;;;;;;4.00;3.20;;;;;;;1.23;78.53;99414.34;5090976;28;20059;-80
2021/05/08 00:41:32;;;;;;;4.22;2.88;;;;;;;1.14;78.66;99409.72;5090953;28;20040;-81
2021/05/08 00:43:59;;;;;;;5.30;3.43;;;;;;;1.10;79.35;99408.25;5090652;28;20059;-81
2021/05/08 00:46:27;;;;;;;5.82;3.65;;;;;;;1.07;80.21;99420.06;5090722;28;20553;-81
2021/05/08 00:48:56;;;;;;;3.87;3.27;;;;;;;1.11;79.73;99394.72;5090451;28;20055;-81
2021/05/08 00:51:22;;;;;;;7.73;4.07;;;;;;;1.18;79.51;99408.50;5091135;28;20051;-81
2021/05/08 00:53:49;;;;;;;4.00;3.43;;;;;;;1.22;79.51;99412.66;5090569;28;20052;-81
2021/05/08 00:56:16;;;;;;;5.10;3.53;;;;;;;1.19;78.84;99404.84;5090788;28;20048;-80
2021/05/08 00:58:43;;;;;;;3.93;3.47;;;;;;;1.02;78.92;99401.69;5090249;28;20172;-80
2021/05/08 01:01:09;;;;;;;4.37;2.90;;;;;;;0.96;78.41;99418.19;5086621;28;20118;-80
2021/05/08 01:03:36;;;;;;;3.23;2.93;;;;;;;0.79;78.80;99413.28;5085217;28;20040;-81
2021/05/08 01:06:03;;;;;;;4.33;3.40;;;;;;;0.86;79.13;99423.41;5091087;28;20056;-80
2021/05/08 01:08:31;;;;;;;4.18;3.22;;;;;;;0.74;79.42;99405.59;5090981;28;20056;-81
2021/05/08 01:10:57;;;;;;;3.60;3.07;;;;;;;0.67;79.70;99423.94;5090626;28;20066;-81
2021/05/08 01:13:23;;;;;;;4.47;3.53;;;;;;;0.60;79.41;99411.97;5090280;28;20071;-81
2021/05/08 01:15:50;;;;;;;4.70;3.30;;;;;;;0.72;79.02;99412.88;5090282;28;20060;-81
2021/05/08 01:18:16;;;;;;;3.80;3.40;;;;;;;0.66;78.63;99408.88;5087007;28;20469;-81
2021/05/08 01:20:44;;;;;;;3.53;3.23;;;;;;;0.51;79.02;99410.00;5090606;28;20040;-80
2021/05/08 01:23:11;;;;;;;3.87;3.40;;;;;;;0.40;79.96;99404.59;5090664;28;20070;-81
2021/05/08 01:25:37;;;;;;;4.60;3.50;;;;;;;0.42;79.39;99399.97;5085635;28;20083;-81
2021/05/08 01:28:04;;;;;;;3.63;3.33;;;;;;;0.52;79.75;99409.88;5089832;28;20067;-81
2021/05/08 01:30:33;;;;;;;4.23;3.47;;;;;;;0.38;80.06;99415.41;5090590;28;20222;-81
2021/05/08 01:32:59;;;;;;;3.37;3.07;;;;;;;0.37;80.37;99413.69;5090402;28;20055;-80
2021/05/08 01:35:27;;;;;;;4.03;2.87;;;;;;;0.47;80.03;99411.22;5093063;28;20381;-80
2021/05/08 01:37:53;;;;;;;3.60;3.30;;;;;;;0.44;79.47;99403.41;5094520;28;20101;-80
2021/05/08 01:40:26;;;;;;;5.07;3.37;;;;;;;0.47;79.80;99412.06;5091564;28;20073;-80
2021/05/08 01:42:53;;;;;;;3.50;2.97;;;;;;;0.35;79.46;99407.63;5093236;28;20044;-80
2021/05/08 01:45:21;;;;;;;3.23;2.90;;;;;;;0.43;79.79;99401.69;5093516;28;20104;-80
2021/05/08 01:47:48;;;;;;;3.97;3.20;;;;;;;0.45;80.08;99397.06;5094165;28;20105;-80
2021/05/08 01:50:17;;;;;;;3.33;2.90;;;;;;;0.41;79.91;99399.16;5093782;28;20056;-80
2021/05/08 01:52:43;;;;;;;4.00;3.60;;;;;;;0.50;80.53;99406.47;5093385;28;20055;-80
2021/05/08 01:55:13;;;;;;;3.93;2.90;;;;;;;0.53;80.03;99400.06;5092586;28;20181;-81
2021/05/08 01:57:42;;;;;;;3.53;2.83;;;;;;;0.43;80.03;99385.66;5088369;28;20352;-81
2021/05/08 02:00:12;;;;;;;3.50;2.97;;;;;;;0.39;80.57;99400.22;5089405;28;20435;-81
2021/05/08 02:02:38;;;;;;;;;;;;;;;0.28;80.12;99396.50;5094149;28;20047;-81
2021/05/08 02:05:07;;;;;;;3.33;2.97;;;;;;;0.26;80.76;99392.25;5093171;28;19932;-81
2021/05/08 02:07:33;;;;;;;5.17;3.17;;;;;;;0.28;80.94;99390.31;5093173;28;20055;-81
2021/05/08 02:09:59;;;;;;;4.40;3.83;;;;;;;0.45;79.65;99387.25;5093578;28;20047;-81
2021/05/08 02:12:29;;;;;;;3.90;3.50;;;;;;;0.35;79.62;99379.03;5092936;28;20044;-81
2021/05/08 02:14:56;;;;;;;3.72;3.38;;;;;;;0.27;80.72;99383.25;5090095;28;20283;-81
2021/05/08 02:17:22;;;;;;;6.53;2.83;;;;;;;0.44;79.58;99376.66;5093427;28;20105;-81
2021/05/08 02:19:48;;;;;;;5.13;3.27;;;;;;;0.19;79.44;99372.28;5091660;28;20086;-81
2021/05/08 02:22:15;;;;;;;3.80;2.77;;;;;;;0.14;80.21;99372.63;5093687;28;20052;-80
2021/05/08 02:24:41;;;;;;;3.67;3.07;;;;;;;0.15;80.46;99379.66;5092686;28;20486;-80
2021/05/08 02:27:07;;;;;;;4.97;2.37;;;;;;;0.04;80.33;99363.56;5093504;28;20092;-81
2021/05/08 02:29:33;;;;;;;3.50;3.03;;;;;;;-0.02;80.88;99349.69;5093317;28;20067;-81
2021/05/08 02:32:00;;;;;;;3.70;3.27;;;;;;;0.01;80.85;99363.81;5104388;28;20105;-81
2021/05/08 02:34:27;;;;;;;3.77;2.80;;;;;;;0.12;80.88;99369.19;5095096;28;20048;-81
2021/05/08 02:36:53;;;;;;;3.67;3.30;;;;;;;0.11;80.60;99351.47;5081337;28;20109;-81
2021/05/08 02:39:20;;;;;;;5.00;3.67;;;;;;;0.26;80.62;99363.69;5092538;28;20044;-81
2021/05/08 02:41:46;;;;;;;4.67;3.00;;;;;;;0.27;80.92;99369.88;5092436;28;20051;-81
2021/05/08 02:44:12;;;;;;;3.30;3.00;;;;;;;0.20;80.43;99361.47;5091298;28;20040;-81
2021/05/08 02:46:39;;;;;;;2.87;2.60;;;;;;;0.07;80.84;99368.69;5087862;28;20048;-81
2021/05/08 02:49:06;;;;;;;3.80;2.87;;;;;;;-0.02;81.13;99354.19;5092722;28;20048;-81
2021/05/08 02:51:32;;;;;;;3.77;3.23;;;;;;;0.05;81.09;99355.44;5092410;28;20044;-81
2021/05/08 02:53:58;;;;;;;4.27;3.37;;;;;;;0.03;81.17;99357.38;5092494;28;20105;-81
2021/05/08 02:56:24;;;;;;;4.47;3.53;;;;;;;0.00;80.98;99344.25;5091753;28;20059;-81
2021/05/08 02:58:50;;;;;;;3.33;2.93;;;;;;;0.02;80.99;99347.66;5092659;28;20052;-80
2021/05/08 03:01:17;;;;;;;3.70;3.30;;;;;;;0.12;80.46;99370.06;5092495;28;20044;-81
2021/05/08 03:03:43;;;;;;;3.60;3.30;;;;;;;0.13;80.40;99362.91;5092176;28;20080;-81
2021/05/08 03:06:10;;;;;;;4.97;3.57;;;;;;;0.14;80.72;99364.59;5092190;28;20471;-81
2021/05/08 03:08:36;;;;;;;3.83;3.07;;;;;;;0.22;81.35;99364.88;5092798;28;20040;-81
2021/05/08 03:11:03;;;;;;;3.90;3.50;;;;;;;0.04;81.91;99351.06;5092804;28;20108;-81
2021/05/08 03:13:29;;;;;;;5.80;3.00;;;;;;;0.04;81.66;99345.72;5091743;28;20083;-80
2021/05/08 03:15:56;;;;;;;3.60;3.30;;;;;;;0.03;82.07;99353.84;5092389;28;20051;-81
2021/05/08 03:18:22;;;;;;;3.70;3.37;;;;;;;0.06;82.04;99353.63;5090025;28;20408;-81
2021/05/08 03:20:48;;;;;;;4.27;3.43;;;;;;;0.20;82.10;99361.47;5092596;28;20059;-80
2021/05/08 03:23:15;;;;;;;5.13;2.83;;;;;;;0.23;80.54;99353.22;5091919;28;20043;-80
2021/05/08 03:25:41;;;;;;;6.87;3.67;;;;;;;0.16;80.70;99357.31;5092020;28;20530;-81
2021/05/08 03:28:08;;;;;;;4.20;3.27;;;;;;;-0.01;81.11;99350.56;5092072;28;20055;-81
2021/05/08 03:30:34;;;;;;;9.70;3.33;;;;;;;-0.03;81.74;99360.47;5092052;28;20442;-80
2021/05/08 03:33:00;;;;;;;6.50;3.27;;;;;;;0.03;81.87;99362.72;5091660;28;20051;-80
2021/05/08 03:35:26;;;;;;;3.60;3.10;;;;;;;-0.02;81.93;99349.69;5088399;28;20511;-80
2021/05/08 03:37:52;;;;;;;3.83;3.03;;;;;;;-0.01;82.05;99353.22;5074686;28;20044;-80
2021/05/08 03:40:20;;;;;;;4.20;3.30;;;;;;;-0.02;81.84;99348.84;5089283;28;20545;-80
2021/05/08 03:42:46;;;;;;;4.67;3.63;;;;;;;0.01;81.50;99359.31;5091634;28;20051;-81
2021/05/08 03:45:13;;;;;;;4.60;3.63;;;;;;;0.15;81.64;99358.28;5091887;28;20044;-80
2021/05/08 03:47:39;;;;;;;4.87;4.00;;;;;;;0.17;80.83;99359.03;5091537;28;20086;-81
2021/05/08 03:50:06;;;;;;;3.90;3.50;;;;;;;0.24;80.67;99338.91;5092033;28;20036;-80
2021/05/08 03:52:33;;;;;;;6.70;3.20;;;;;;;0.15;80.70;99345.78;5088837;28;20043;-81
2021/05/08 03:55:00;;;;;;;4.73;3.47;;;;;;;-0.01;80.72;99346.06;5081888;28;20048;-80
2021/05/08 03:57:27;;;;;;;4.07;3.40;;;;;;;-0.01;81.19;99348.72;5087820;28;20383;-80
2021/05/08 03:59:55;;;;;;;7.23;3.97;;;;;;;-0.06;80.92;99352.69;5091624;28;20542;-80
2021/05/08 04:02:21;;;;;;;3.23;2.93;;;;;;;-0.01;80.92;99355.91;5091218;28;20052;-80
2021/05/08 04:04:48;;;;;;;4.73;3.47;;;;;;;-0.03;80.46;99344.44;5090640;28;20385;-80
2021/05/08 04:07:14;;;;;;;5.20;3.33;;;;;;;-0.16;81.30;99335.66;5091483;28;20052;-80
2021/05/08 04:09:40;;;;;;;3.70;3.30;;;;;;;-0.09;81.42;99334.22;5091112;28;20059;-80
2021/05/08 04:12:07;;;;;;;4.60;3.70;;;;;;;0.12;81.43;99359.38;5090877;28;20540;-80
2021/05/08 04:14:34;;;;;;;4.43;3.27;;;;;;;0.11;81.05;99348.78;5090590;28;20052;-80
2021/05/08 04:17:00;;;;;;;5.03;3.70;;;;;;;0.09;80.91;99332.88;5091619;28;20126;-80
2021/05/08 04:19:27;;;;;;;4.17;3.40;;;;;;;0.23;80.63;99349.72;5090657;28;20071;-80
2021/05/08 04:21:53;;;;;;;4.40;2.90;;;;;;;0.10;81.88;99339.06;5091333;28;20051;-80
2021/05/08 04:24:19;;;;;;;5.13;3.40;;;;;;;0.35;81.65;99346.13;5089909;28;20476;-80
2021/05/08 04:26:45;;;;;;;4.60;3.80;;;;;;;0.48;80.91;99351.38;5085662;28;20045;-81
2021/05/08 04:29:12;;;;;;;4.57;3.60;;;;;;;0.48;80.62;99335.31;5091433;28;20093;-81
2021/05/08 04:31:39;;;;;;;4.13;3.73;;;;;;;0.48;80.03;99322.81;5090848;28;20051;-80
2021/05/08 04:34:05;;;;;;;3.50;3.20;;;;;;;0.69;80.42;99339.06;5085857;28;20059;-80
2021/05/08 04:36:31;;;;;;;6.20;4.10;;;;;;;0.73;80.39;99341.50;5090796;28;20047;-80
2021/05/08 04:38:57;;;;;;;5.63;4.00;;;;;;;0.64;80.37;99348.41;5090910;28;20048;-81
2021/05/08 04:41:23;;;;;;;3.93;3.23;;;;;;;0.66;79.73;99325.03;5090278;28;20059;-79
2021/05/08 04:43:50;;;;;;;5.83;3.53;;;;;;;0.80;80.24;99346.25;5091369;28;20041;-79
2021/05/08 04:46:16;;;;;;;3.40;2.97;;;;;;;0.61;80.72;99327.22;5090302;28;20040;-80
2021/05/08 04:48:43;;;;;;;4.53;3.43;;;;;;;0.64;80.91;99345.72;5088968;28;20044;-82
2021/05/08 04:51:09;;;;;;;4.70;3.80;;;;;;;0.63;81.30;99344.00;5090192;28;20522;-81
2021/05/08 04:53:38;;;;;;;5.13;3.83;;;;;;;0.58;81.47;99328.31;5091050;28;20092;-81
2021/05/08 04:56:07;;;;;;;5.97;3.67;;;;;;;0.72;81.23;99335.25;5090193;28;20048;-81
2021/05/08 04:58:33;;;;;;;4.17;3.13;;;;;;;0.87;81.14;99338.59;5090444;28;20044;-81
2021/05/08 05:00:59;;;;;;;4.20;3.67;;;;;;;0.94;81.47;99322.91;5091466;28;20105;-81
2021/05/08 05:03:25;;;;;;;5.47;3.43;;;;;;;1.00;81.27;99331.31;5090608;28;20277;-81
2021/05/08 05:05:53;;;;;;;4.00;3.60;;;;;;;1.08;80.40;99330.72;5090749;28;20545;-81
2021/05/08 05:08:19;;;;;;;4.57;3.60;;;;;;;1.13;80.58;99331.22;5086530;28;20055;-81
2021/05/08 05:10:49;;;;;;;6.20;3.73;;;;;;;1.27;80.30;99338.16;5094680;28;20044;-82
2021/05/08 05:13:16;;;;;;;5.22;4.40;;;;;;;1.38;80.83;99339.97;5092991;28;20048;-82
2021/05/08 05:15:42;;;;;;;7.97;4.72;;;;;;;1.45;81.53;99337.69;5094002;28;20495;-81
2021/05/08 05:18:09;;;;;;;5.57;4.27;;;;;;;1.66;80.97;99335.09;5094518;28;20036;-82
2021/05/08 05:20:35;;;;;;;4.45;3.65;;;;;;;2.01;80.02;99328.69;5094514;28;20093;-82
2021/05/08 05:23:02;;;;;;;6.43;4.30;;;;;;;2.65;78.44;99338.56;5092302;28;20048;-82
2021/05/08 05:25:28;;;;;;;6.03;3.95;;;;;;;2.97;76.34;99308.94;5080302;28;20055;-82
2021/05/08 05:27:54;;;;;;;4.80;3.97;;;;;;;3.63;74.91;99325.63;5093972;28;20052;-82
2021/05/08 05:30:22;;;;;;;11.15;4.78;;;;;;;4.01;72.09;99314.13;5093382;28;20059;-82
2021/05/08 05:32:48;;;;;;;5.78;4.15;;;;;;;4.53;70.87;99313.88;5092134;28;20044;-82
2021/05/08 05:35:14;;;;;;;8.30;4.32;;;;;;;4.91;69.52;99316.66;5085230;28;20405;-82
2021/05/08 05:37:41;;;;;;;6.35;4.28;;;;;;;5.06;68.99;99319.72;5083742;28;20070;-82
2021/05/08 05:40:09;;;;;;;8.77;4.80;;;;;;;5.22;69.44;99316.44;5094532;28;20048;-82
2021/05/08 05:42:36;;;;;;;7.35;4.20;;;;;;;5.50;68.33;99322.72;5094512;28;20044;-82
2021/05/08 05:45:03;;;;;;;5.85;3.53;;;;;;;5.79;67.29;99332.53;5093574;28;20040;-82
2021/05/08 05:47:32;;;;;;;5.25;3.92;;;;;;;6.13;65.97;99332.78;5095892;28;20047;-82
2021/05/08 05:50:03;;;;;;;5.10;3.58;;;;;;;6.18;65.18;99337.72;5095485;28;20139;-82
2021/05/08 05:52:29;;;;;;;6.53;3.40;;;;;;;6.09;65.42;99325.97;5094306;28;20056;-82
2021/05/08 05:54:56;;;;;;;7.38;3.38;;;;;;;6.05;65.37;99311.06;5092874;28;20063;-82
2021/05/08 05:57:28;;;;;;;5.32;3.20;;;;;;;6.65;64.32;99315.03;5094005;28;20048;-82
2021/05/08 05:59:54;;;;;;;4.25;2.88;;;;;;;7.29;63.09;99325.63;5093512;28;20509;-82
2021/05/08 06:02:21;;;;;;;3.83;3.00;;;;;;;7.40;62.84;99318.06;5093420;28;20097;-82
2021/05/08 06:04:47;;;;;;;5.40;3.75;;;;;;;7.82;62.14;99308.28;5093166;28;20782;-82
2021/05/08 06:07:13;;;;;;;3.60;3.08;;;;;;;7.94;62.50;99292.59;5093081;28;20048;-82
2021/05/08 06:09:39;;;;;;;4.63;3.15;;;;;;;8.32;61.46;99301.13;5093689;28;20545;-82
2021/05/08 06:12:06;;;;;;;4.53;3.22;;;;;;;8.66;60.31;99292.91;5101279;28;20044;-80
2021/05/08 06:14:33;;;;;;;4.13;3.17;;;;;;;8.84;58.00;99292.72;5093135;28;20048;-80
2021/05/08 06:17:00;;;;;;;5.07;3.40;;;;;;;9.13;57.34;99304.06;5090680;28;20043;-82
2021/05/08 06:19:26;;;;;;;3.97;3.03;;;;;;;9.48;55.46;99307.34;5092812;28;20055;-82
2021/05/08 06:21:53;;;;;;;4.05;3.05;;;;;;;9.86;55.17;99311.13;5092944;28;20051;-82
2021/05/08 06:24:20;;;;;;;5.38;3.65;;;;;;;9.85;54.91;99309.41;5093018;28;20044;-81
2021/05/08 06:26:47;;;;;;;6.25;3.40;;;;;;;9.82;54.43;99303.50;5092716;28;20048;-81
2021/05/08 06:29:13;;;;;;;5.63;3.72;;;;;;;10.12;53.17;99298.25;5092837;28;20518;-81
2021/05/08 06:31:43;;;;;;;6.25;3.72;;;;;;;10.66;52.33;99305.56;5093458;28;20044;-82
2021/05/08 06:34:09;;;;;;;5.75;4.07;;;;;;;10.85;51.50;99299.63;5090896;28;20499;-82
2021/05/08 06:36:35;;;;;;;7.13;4.05;;;;;;;11.10;50.45;99316.56;5091609;28;20059;-81
2021/05/08 06:39:01;;;;;;;4.68;3.20;;;;;;;11.08;49.88;99315.91;5092486;28;20048;-81
2021/05/08 06:41:28;;;;;;;5.72;3.15;;;;;;;11.34;49.52;99311.91;5092510;28;20048;-81
2021/05/08 06:43:54;;;;;;;6.05;3.13;;;;;;;11.34;49.61;99315.47;5092420;28;20412;-82
2021/05/08 06:46:20;;;;;;;6.70;3.40;;;;;;;11.80;49.37;99314.47;5091685;28;20419;-81
2021/05/08 06:48:51;;;;;;;5.57;3.38;;;;;;;11.37;49.37;99316.16;5076079;28;20482;-81
2021/05/08 06:51:17;;;;;;;;;;;;;;;11.61;50.02;99310.41;5090427;28;20040;-81
2021/05/08 06:53:43;;;;;;;4.82;3.45;;;;;;;11.82;49.30;99284.31;5092993;28;20023;-81
2021/05/08 06:56:09;;;;;;;3.70;2.90;;;;;;;12.14;48.82;99296.66;5091974;28;20043;-81
2021/05/08 06:58:40;;;;;;;8.18;3.67;;;;;;;12.29;49.62;99290.34;5092455;28;20036;-81
2021/05/08 07:01:09;;;;;;;4.95;3.15;;;;;;;12.49;49.50;99285.06;5092281;28;20080;-80
2021/05/08 07:03:36;;;;;;;3.78;3.13;;;;;;;12.56;49.08;99286.00;5091854;28;20051;-80
2021/05/08 07:06:04;;;;;;;7.88;3.63;;;;;;;12.79;49.93;99291.22;5092148;28;20056;-81
2021/05/08 07:08:31;;;;;;;5.57;3.38;;;;;;;12.78;48.74;99273.19;5092032;28;20063;-81
2021/05/08 07:10:57;;;;;;;5.78;3.22;;;;;;;12.73;48.09;99294.75;5092388;28;20040;-80
2021/05/08 07:13:26;;;;;;;5.55;3.08;;;;;;;12.43;48.84;99289.41;5091009;28;20081;-81
2021/05/08 07:15:53;;;;;;;4.75;3.00;;;;;;;12.66;46.60;99282.94;5088831;28;20052;-80
2021/05/08 07:18:19;;;;;;;4.93;3.05;;;;;;;12.82;48.19;99277.19;5091569;28;20055;-81
2021/05/08 07:20:46;;;;;;;7.32;3.42;;;;;;;12.84;45.89;99283.31;5092301;28;20044;-81
2021/05/08 07:23:13;;;;;;;4.32;2.88;;;;;;;12.66;47.01;99281.06;5091778;28;20047;-81
2021/05/08 07:25:39;;;;;;;6.57;3.22;;;;;;;12.84;46.64;99261.50;5091779;28;20078;-81
2021/05/08 07:28:10;;;;;;;5.90;3.05;;;;;;;12.98;46.82;99276.09;5091905;28;20388;-81
2021/05/08 07:30:37;;;;;;;4.47;2.80;;;;;;;13.03;47.43;99270.88;5091612;28;20048;-81
2021/05/08 07:33:03;;;;;;;4.32;3.00;;;;;;;13.40;47.30;99277.03;5087384;28;20291;-81
2021/05/08 07:35:29;;;;;;;5.40;3.75;;;;;;;13.42;49.17;99269.47;5091053;28;20495;-81
2021/05/08 07:37:56;;;;;;;5.07;3.17;;;;;;;13.47;48.79;99270.78;5091632;28;20048;-81
2021/05/08 07:40:23;;;;;;;6.15;2.60;;;;;;;13.53;45.98;99270.78;5091423;28;20044;-81
2021/05/08 07:42:50;;;;;;;7.78;2.63;;;;;;;13.34;47.51;99272.38;5091474;28;20385;-81
2021/05/08 07:45:16;;;;;;;6.07;3.28;;;;;;;13.43;48.42;99262.16;5077544;28;20048;-81
2021/05/08 07:47:42;;;;;;;4.32;2.75;;;;;;;13.59;47.93;99263.69;5087062;28;20044;-81
2021/05/08 07:50:11;;;;;;;8.57;3.65;;;;;;;13.43;47.30;99273.06;5085176;28;20043;-81
2021/05/08 07:52:37;;;;;;;3.95;2.10;;;;;;;13.48;47.50;99273.31;5083175;28;20040;-81
2021/05/08 07:55:07;;;;;;;3.42;2.05;;;;;;;13.53;47.79;99267.22;5091070;28;20055;-80
2021/05/08 07:57:34;;;;;;;3.10;2.33;;;;;;;13.70;47.18;99265.88;5090327;28;20044;-80
2021/05/08 08:00:00;;;;;;;6.57;2.33;;;;;;;13.71;44.94;99262.06;5091131;28;20097;-81
2021/05/08 08:02:30;;;;;;;9.43;2.70;;;;;;;13.68;45.65;99273.41;5090247;28;20055;-81
2021/05/08 08:04:57;;;;;;;3.70;2.55;;;;;;;13.85;47.21;99259.41;5090301;28;20040;-81
2021/05/08 08:07:23;;;;;;;6.20;2.35;;;;;;;13.78;45.49;99268.41;5090321;28;20055;-81
2021/05/08 08:09:49;;;;;;;8.45;2.45;;;;;;;13.65;44.64;99273.81;5088342;28;20048;-81
2021/05/08 08:12:15;;;;;;;2.25;1.70;;;;;;;13.98;44.91;99257.56;5090913;28;20048;-81
2021/05/08 08:14:42;;;;;;;3.95;1.95;;;;;;;14.34;43.80;99278.25;5074166;28;20119;-80
2021/05/08 08:17:11;;;;;;;5.68;1.90;;;;;;;14.32;42.93;99274.06;5088701;28;20052;-81
2021/05/08 08:19:41;;;;;;;1.65;1.35;;;;;;;14.33;41.88;99264.81;5090855;28;20047;-81
2021/05/08 08:22:07;;;;;;;2.10;1.48;;;;;;;14.23;41.21;99250.72;5091610;28;20075;-81
2021/05/08 08:24:36;;;;;;;6.45;2.03;;;;;;;14.09;41.18;99268.94;5090761;28;20047;-81
2021/05/08 08:27:04;;;;;;;3.03;1.70;;;;;;;13.85;41.92;99263.00;5087673;28;20052;-81
2021/05/08 08:29:30;;;;;;;2.50;1.80;;;;;;;13.89;43.60;99264.25;5090563;28;20561;-81
2021/05/08 08:31:58;;;;;;;3.53;1.98;;;;;;;14.11;42.33;99262.22;5091701;28;20419;-81
2021/05/08 08:34:30;;;;;;;5.72;1.63;;;;;;;14.15;45.04;99254.44;5090658;28;20614;-81
2021/05/08 08:37:10;;;;;;;3.92;1.92;;;;;;;14.47;43.24;99266.53;5090980;28;20131;-81
2021/05/08 08:39:36;;;;;;;;;;;;;;;14.42;43.54;99276.41;5091071;28;20040;-81
2021/05/08 08:42:04;;;;;;;3.83;1.92;;;;;;;14.31;43.94;99275.13;5089518;28;19920;-83
2021/05/08 08:44:30;;;;;;;2.60;1.70;;;;;;;13.91;41.58;99255.84;5093845;28;20083;-80
2021/05/08 08:46:57;;;;;;;4.20;1.92;;;;;;;13.73;44.58;99260.00;5086082;28;20461;-81
2021/05/08 08:49:24;;;;;;;3.05;2.20;;;;;;;14.08;43.92;99248.97;5086287;28;20059;-81
2021/05/08 08:51:53;;;;;;;3.58;1.80;;;;;;;14.07;44.97;99249.19;5094430;28;20102;-81
2021/05/08 08:54:24;;;;;;;5.47;2.10;;;;;;;14.43;41.70;99258.94;5094605;28;20063;-79
2021/05/08 08:56:51;;;;;;;3.08;2.15;;;;;;;14.25;44.49;99245.88;5094845;28;20056;-80
2021/05/08 08:59:27;;;;;;;2.45;1.83;;;;;;;14.11;40.62;99245.00;5093775;28;20060;-80
2021/05/08 09:01:53;;;;;;;2.28;1.70;;;;;;;14.41;42.04;99250.13;5083292;28;20139;-80
2021/05/08 09:04:27;;;;;;;3.47;1.80;;;;;;;14.38;41.41;99250.50;5094263;28;20134;-81
2021/05/08 09:07:04;;;;;;;3.58;2.15;;;;;;;14.45;39.98;99240.41;5095445;28;20051;-79
2021/05/08 09:09:30;;;;;;;3.80;2.47;;;;;;;14.41;42.05;99231.81;5092028;28;20054;-79
2021/05/08 09:11:57;;;;;;;3.50;2.05;;;;;;;14.46;42.34;99239.38;5093139;28;20193;-79
2021/05/08 09:14:25;;;;;;;3.70;1.63;;;;;;;14.51;39.49;99232.25;5094139;28;20052;-79
2021/05/08 09:17:02;;;;;;;3.78;1.73;;;;;;;14.27;38.57;99224.63;5093400;28;20044;-79
2021/05/08 09:19:32;;;;;;;2.33;1.67;;;;;;;14.67;40.37;99239.22;5094727;28;20603;-80
2021/05/08 09:22:06;;;;;;;2.35;1.88;;;;;;;14.54;40.93;99230.97;5094264;28;20395;-79
2021/05/08 09:24:56;;;;;;;2.78;1.38;;;;;;;14.53;39.92;99221.09;5092971;28;20051;-79
2021/05/08 09:27:44;;;;;;;5.75;1.85;;;;;;;14.62;41.25;99221.75;5094151;28;20051;-79
2021/05/08 09:30:14;;;;;;;6.63;1.73;;;;;;;14.70;41.27;99221.53;5094107;28;20059;-80
2021/05/08 09:32:43;;;;;;;2.85;1.80;;;;;;;14.95;40.55;99219.00;5093624;28;20047;-80
2021/05/08 09:35:16;;;;;;;2.50;1.55;;;;;;;14.93;38.74;99212.06;5093821;28;20491;-79
2021/05/08 09:37:43;;;;;;;1.95;1.10;;;;;;;14.95;40.99;99208.06;5093966;28;20483;-79
2021/05/08 09:40:30;;;;;;;1.85;1.15;;;;;;;14.97;41.10;99211.41;5080166;28;20043;-79
2021/05/08 09:42:57;;;;;;;5.97;1.52;;;;;;;15.11;39.38;99194.97;5088514;28;20047;-80
2021/05/08 09:45:30;;;;;;;1.85;1.30;;;;;;;15.08;41.32;99190.75;5093503;28;20055;-82
2021/05/08 09:47:57;;;;;;;3.17;1.73;;;;;;;14.86;39.71;99203.88;5074028;28;20074;-79
2021/05/08 09:50:25;;;;;;;2.50;1.58;;;;;;;14.99;40.59;99197.50;5083818;28;20048;-79
2021/05/08 09:52:53;;;;;;;3.70;1.60;;;;;;;15.24;39.21;99186.72;5093820;28;20060;-80
2021/05/08 09:55:21;;;;;;;2.10;1.45;;;;;;;15.38;41.08;99191.09;5092434;28;20127;-79
2021/05/08 09:58:01;;;;;;;2.20;1.27;;;;;;;15.46;40.25;99195.53;5092736;28;20048;-79
2021/05/08 10:00:38;;;;;;;1.50;1.10;;;;;;;15.28;38.84;99193.47;5093574;28;20071;-80
2021/05/08 10:03:15;;;;;;;2.03;1.38;;;;;;;15.26;37.04;99197.47;5092310;28;20060;-80
2021/05/08 10:05:47;;;;;;;2.35;1.20;;;;;;;15.15;35.27;99188.84;5082230;28;20044;-80
2021/05/08 10:08:13;;;;;;;3.55;1.30;;;;;;;15.24;35.10;99188.63;5092897;28;20055;-80
2021/05/08 10:10:39;;;;;;;2.67;1.40;;;;;;;15.27;36.35;99190.94;5093222;28;20051;-80
2021/05/08 10:13:08;;;;;;;2.05;1.45;;;;;;;15.39;35.89;99184.56;5092938;28;20472;-80
2021/05/08 10:15:35;;;;;;;1.45;1.17;;;;;;;15.33;37.10;99184.59;5092600;28;20633;-80
2021/05/08 10:18:03;;;;;;;2.72;1.33;;;;;;;15.71;34.86;99173.69;5093800;28;20399;-80
2021/05/08 10:20:30;;;;;;;1.35;0.95;;;;;;;15.86;34.01;99164.38;5093746;28;20052;-81
2021/05/08 10:22:59;;;;;;;2.50;1.33;;;;;;;16.22;33.93;99160.97;5090869;28;20047;-79
2021/05/08 10:25:26;;;;;;;3.63;1.07;;;;;;;16.50;34.51;99165.22;5092329;28;20054;-79
2021/05/08 10:27:53;;;;;;;2.92;1.20;;;;;;;16.51;35.74;99155.06;5093232;28;20048;-80
2021/05/08 10:30:21;;;;;;;1.58;1.00;;;;;;;16.19;34.65;99158.69;5092351;28;20048;-79
2021/05/08 10:32:50;;;;;;;3.60;1.30;;;;;;;16.45;32.10;99145.81;5093065;28;20058;-80
2021/05/08 10:35:23;;;;;;;1.83;1.33;;;;;;;16.67;31.49;99143.53;5092036;28;20491;-79
2021/05/08 10:38:14;;;;;;;2.70;1.50;;;;;;;17.06;32.02;99138.72;5092710;28;20399;-80
2021/05/08 10:41:05;;;;;;;3.28;1.38;;;;;;;17.03;33.99;99135.63;5091854;28;20043;-80
2021/05/08 10:43:51;;;;;;;2.70;1.30;;;;;;;17.43;34.20;99143.38;5078061;28;20044;-79
2021/05/08 10:46:18;;;;;;;1.90;1.20;;;;;;;17.66;33.29;99132.50;5092412;28;20132;-80
2021/05/08 10:49:24;;;;;;;3.38;1.40;;;;;;;17.81;33.23;99136.75;5091232;28;20048;-79
2021/05/08 10:51:58;;;;;;;8.48;1.77;;;;;;;17.34;31.78;99121.72;5087112;28;20068;-80
2021/05/08 10:54:55;;;;;;;2.20;1.10;;;;;;;17.45;35.78;99128.34;5092147;28;20051;-80
2021/05/08 10:57:23;;;;;;;2.20;1.33;;;;;;;17.33;35.04;99113.72;5072355;28;20048;-80
2021/05/08 11:00:24;;;;;;;2.53;1.23;;;;;;;17.67;35.63;99106.72;5089451;28;20491;-80
2021/05/08 11:03:01;;;;;;;1.83;1.30;;;;;;;17.69;33.65;99103.72;5049935;28;20049;-80
2021/05/08 11:05:31;;;;;;;1.33;1.05;;;;;;;17.66;34.09;99101.44;5048978;28;20041;-80
2021/05/08 11:07:58;;;;;;;4.85;1.40;;;;;;;17.45;33.44;99100.88;5062897;28;20044;-80
2021/05/08 11:10:40;;;;;;;4.75;1.20;;;;;;;17.63;34.82;99108.25;5092803;28;20056;-80
2021/05/08 11:13:09;;;;;;;1.75;1.30;;;;;;;17.59;34.21;99090.53;5092177;28;20044;-79
2021/05/08 11:16:09;;;;;;;2.45;1.40;;;;;;;17.65;37.04;99094.25;5091040;28;20043;-79
2021/05/08 11:18:38;;;;;;;1.30;0.98;;;;;;;17.61;36.21;99096.63;5092129;28;20055;-79
2021/05/08 11:21:29;;;;;;;3.50;1.50;;;;;;;17.48;34.59;99089.41;5092284;28;20134;-79
2021/05/08 11:23:58;;;;;;;3.88;1.60;;;;;;;17.43;36.47;99081.03;5091683;28;20063;-79
2021/05/08 11:26:37;;;;;;;1.30;1.20;;;;;;;17.69;35.23;99087.22;5092016;28;20059;-78
2021/05/08 11:29:05;;;;;;;2.97;1.38;;;;;;;17.82;35.20;99091.69;5092214;28;20124;-79
2021/05/08 11:31:33;;;;;;;5.50;1.60;;;;;;;17.64;34.10;99090.69;5077225;28;20120;-78
2021/05/08 11:34:10;;;;;;;3.88;1.60;;;;;;;17.42;33.85;99081.25;5091747;28;20056;-79
2021/05/08 11:36:48;;;;;;;1.92;1.17;;;;;;;17.63;32.92;99086.25;5090630;28;20052;-79
2021/05/08 11:39:16;;;;;;;1.48;1.30;;;;;;;17.65;36.80;99083.25;5092194;28;20480;-79
2021/05/08 11:41:45;;;;;;;2.67;1.33;;;;;;;18.00;35.19;99071.56;5091633;28;20036;-79
2021/05/08 11:44:20;;;;;;;4.45;1.38;;;;;;;18.38;34.26;99079.41;5091558;28;20044;-79